Time;durP1;ratioP1;P1;durP2;ratioP2;P2;SDS_P1;SDS_P2;PMS_P1;PMS_P2;Temp;Humidity;BMP_temperature;BMP_pressure;BME280_temperature;BME280_humidity;BME280_pressure;Samples;Min_cycle;Max_cycle;Signal;HPM_P1;HPM_P2
2023/02/21 02:15:26;;;;;;;10.80;7.43;;;9.00;99.90;;;;;;5034425;28;20971;-72
2023/02/21 02:17:58;;;;;;;11.60;7.40;;;9.00;99.90;;;;;;5045766;28;20398;-71
2023/02/21 02:20:24;;;;;;;10.57;8.00;;;9.00;99.90;;;;;;5021634;28;21024;-72
2023/02/21 02:23:08;;;;;;;12.90;8.50;;;9.10;99.90;;;;;;5044659;28;20578;-73
2023/02/21 02:26:03;;;;;;;15.37;9.60;;;9.10;99.90;;;;;;5040487;28;20189;-71
2023/02/21 02:28:42;;;;;;;9.67;8.67;;;9.10;99.90;;;;;;5020818;28;20420;-71
2023/02/21 02:31:29;;;;;;;14.77;9.70;;;9.10;99.90;;;;;;5034759;28;20926;-70
2023/02/21 02:34:13;;;;;;;12.03;9.00;;;9.10;99.90;;;;;;5036715;28;20401;-71
2023/02/21 02:36:43;;;;;;;13.70;8.90;;;9.10;99.90;;;;;;5025430;28;20826;-72
2023/02/21 02:39:27;;;;;;;12.63;8.70;;;9.10;99.90;;;;;;5044120;28;20466;-74
2023/02/21 02:41:55;;;;;;;13.07;8.50;;;9.10;99.90;;;;;;5035421;28;20503;-72
2023/02/21 02:44:52;;;;;;;13.80;8.23;;;9.20;99.90;;;;;;5043424;28;20441;-71
2023/02/21 02:47:33;;;;;;;13.63;8.33;;;9.20;99.90;;;;;;5039343;28;20422;-71
2023/02/21 02:50:00;;;;;;;13.50;8.90;;;9.20;99.90;;;;;;5029701;28;20908;-72
2023/02/21 02:52:26;;;;;;;13.57;8.10;;;9.20;99.90;;;;;;5038005;28;20428;-71
2023/02/21 02:55:03;;;;;;;11.47;8.07;;;9.30;99.90;;;;;;5046748;28;20837;-72
2023/02/21 02:57:39;;;;;;;11.97;8.07;;;9.20;99.90;;;;;;5042303;28;20563;-72
2023/02/21 03:00:07;;;;;;;11.63;7.27;;;9.30;99.90;;;;;;5041630;28;20409;-71
2023/02/21 03:02:41;;;;;;;11.07;7.87;;;9.30;99.90;;;;;;5035642;28;20459;-71
2023/02/21 03:05:15;;;;;;;11.27;7.17;;;9.30;99.90;;;;;;5046938;28;20927;-71
2023/02/21 03:08:02;;;;;;;14.53;9.50;;;9.30;99.90;;;;;;5041944;28;20418;-70
2023/02/21 03:10:27;;;;;;;14.37;7.60;;;9.30;99.90;;;;;;5041992;28;20468;-72
2023/02/21 03:13:04;;;;;;;12.67;8.60;;;9.40;99.90;;;;;;5030615;28;20420;-71
2023/02/21 03:16:04;;;;;;;14.57;9.43;;;9.40;99.90;;;;;;5042076;28;20726;-70
2023/02/21 03:18:35;;;;;;;12.40;7.43;;;9.40;99.90;;;;;;5006490;28;20443;-71
2023/02/21 03:21:04;;;;;;;11.63;8.10;;;9.40;99.90;;;;;;5037446;28;20956;-71
2023/02/21 03:23:33;;;;;;;11.00;7.90;;;9.40;99.90;;;;;;5044349;28;20833;-71
2023/02/21 03:26:03;;;;;;;16.17;8.40;;;9.40;99.90;;;;;;5044319;28;20536;-71
2023/02/21 03:28:30;;;;;;;10.10;8.00;;;9.40;99.90;;;;;;5041144;28;20412;-71
2023/02/21 03:30:58;;;;;;;10.17;7.00;;;9.50;99.90;;;;;;5041166;28;20420;-71
2023/02/21 03:33:24;;;;;;;13.23;7.90;;;9.50;99.90;;;;;;5039123;28;20448;-71
2023/02/21 03:35:50;;;;;;;11.67;9.20;;;9.50;99.90;;;;;;5044079;28;20506;-71
2023/02/21 03:38:15;;;;;;;10.77;6.67;;;9.60;99.90;;;;;;5039386;28;20171;-71
2023/02/21 03:40:41;;;;;;;10.60;7.17;;;9.50;99.90;;;;;;5042552;28;20537;-71
2023/02/21 03:43:07;;;;;;;9.57;7.10;;;9.50;99.90;;;;;;5040211;28;20172;-71
2023/02/21 03:45:35;;;;;;;10.57;7.00;;;9.50;99.90;;;;;;5041301;28;20205;-71
2023/02/21 03:48:02;;;;;;;10.07;6.60;;;9.50;99.90;;;;;;5037620;28;20257;-70
2023/02/21 03:50:27;;;;;;;10.90;7.07;;;9.50;99.90;;;;;;5039669;28;20421;-69
2023/02/21 03:52:53;;;;;;;8.97;6.60;;;9.50;99.90;;;;;;5032574;28;20523;-72
2023/02/21 03:55:19;;;;;;;8.77;6.50;;;9.50;99.90;;;;;;5034739;28;20195;-71
2023/02/21 03:57:45;;;;;;;9.90;6.57;;;9.50;99.90;;;;;;5035011;28;20168;-71
2023/02/21 04:00:12;;;;;;;9.27;7.20;;;9.50;99.90;;;;;;5041561;28;20420;-71
2023/02/21 04:02:38;;;;;;;11.27;6.80;;;9.60;99.90;;;;;;5041195;28;20643;-71
2023/02/21 04:05:04;;;;;;;10.37;6.10;;;9.60;99.90;;;;;;5019970;28;20466;-72
2023/02/21 04:07:30;;;;;;;9.20;6.57;;;9.60;99.90;;;;;;5038444;28;20181;-71
2023/02/21 04:09:55;;;;;;;9.47;6.57;;;9.60;99.90;;;;;;5041056;28;20450;-72
2023/02/21 04:12:21;;;;;;;10.70;6.50;;;9.60;99.90;;;;;;5046234;28;20189;-72
2023/02/21 04:14:46;;;;;;;9.57;6.27;;;9.60;99.90;;;;;;5046763;28;20267;-70
2023/02/21 04:17:12;;;;;;;8.67;6.03;;;9.70;99.90;;;;;;5043531;28;20206;-69
2023/02/21 04:19:38;;;;;;;9.60;6.40;;;9.70;99.90;;;;;;5042255;28;20174;-71
2023/02/21 04:22:03;;;;;;;10.83;7.17;;;9.70;99.90;;;;;;5039582;28;20171;-71
2023/02/21 04:24:29;;;;;;;7.53;5.80;;;9.70;99.90;;;;;;5040779;28;20768;-70
2023/02/21 04:26:55;;;;;;;9.97;5.40;;;9.70;99.90;;;;;;5039589;28;20522;-69
2023/02/21 04:29:20;;;;;;;8.17;4.30;;;9.80;99.90;;;;;;5038947;28;20688;-70
2023/02/21 04:31:46;;;;;;;9.80;6.67;;;9.80;99.90;;;;;;5042680;28;20197;-71
2023/02/21 04:34:12;;;;;;;8.43;6.00;;;9.80;99.90;;;;;;5043435;28;20540;-71
2023/02/21 04:36:38;;;;;;;8.77;6.40;;;9.80;99.90;;;;;;5038879;28;20207;-70
2023/02/21 04:39:04;;;;;;;8.87;6.20;;;9.80;99.90;;;;;;5034426;28;20262;-70
2023/02/21 04:41:30;;;;;;;8.57;6.40;;;9.80;99.90;;;;;;5038356;28;20420;-70
2023/02/21 04:43:55;;;;;;;9.00;6.17;;;9.80;99.90;;;;;;5043566;28;20412;-71
2023/02/21 04:46:21;;;;;;;8.07;6.10;;;9.80;99.90;;;;;;5035419;28;20543;-70
2023/02/21 04:48:49;;;;;;;9.63;7.07;;;9.80;99.90;;;;;;5039549;28;20187;-71
2023/02/21 04:51:17;;;;;;;8.43;5.23;;;9.80;99.90;;;;;;5033623;28;20253;-71
2023/02/21 04:53:45;;;;;;;8.53;6.47;;;9.80;99.90;;;;;;5033087;28;20450;-70
2023/02/21 04:56:11;;;;;;;8.00;5.00;;;9.80;99.90;;;;;;5034221;28;20972;-70
2023/02/21 04:58:37;;;;;;;9.13;6.40;;;9.80;99.90;;;;;;5039521;28;20417;-71
2023/02/21 05:01:02;;;;;;;9.23;5.73;;;9.70;99.90;;;;;;5044280;28;20809;-72
2023/02/21 05:03:28;;;;;;;8.37;6.47;;;9.60;99.90;;;;;;5041859;28;20173;-73
2023/02/21 05:05:54;;;;;;;10.50;8.07;;;9.60;99.90;;;;;;5040440;28;20227;-72
2023/02/21 05:08:19;;;;;;;10.23;6.07;;;9.50;99.90;;;;;;5047223;28;20576;-73
2023/02/21 05:10:46;;;;;;;7.27;6.17;;;9.50;99.90;;;;;;5039810;28;20184;-71
2023/02/21 05:13:12;;;;;;;7.50;6.10;;;9.50;99.90;;;;;;5041408;28;20185;-72
2023/02/21 05:15:38;;;;;;;13.17;7.00;;;9.40;99.90;;;;;;5045599;28;20436;-71
2023/02/21 05:18:04;;;;;;;10.63;6.90;;;9.40;99.90;;;;;;5047369;28;20409;-70
2023/02/21 05:20:29;;;;;;;9.47;7.23;;;9.40;99.90;;;;;;5041841;28;20622;-72
2023/02/21 05:22:55;;;;;;;8.73;6.37;;;9.50;99.90;;;;;;5044678;28;20179;-72
2023/02/21 05:25:22;;;;;;;14.77;6.97;;;9.40;99.90;;;;;;5040258;28;20664;-71
2023/02/21 05:27:48;;;;;;;10.40;6.93;;;9.30;99.90;;;;;;5043769;28;20670;-72
2023/02/21 05:30:17;;;;;;;9.30;6.40;;;9.30;99.90;;;;;;5042102;28;20414;-71
2023/02/21 05:32:43;;;;;;;11.10;7.20;;;9.30;99.90;;;;;;5039718;28;20398;-71
2023/02/21 05:35:10;;;;;;;13.17;6.30;;;9.30;99.90;;;;;;5046420;28;20959;-69
2023/02/21 05:37:36;;;;;;;11.43;6.77;;;9.30;99.90;;;;;;5040703;28;20453;-71
2023/02/21 05:40:04;;;;;;;10.03;6.40;;;9.30;99.90;;;;;;5028756;28;20423;-72
2023/02/21 05:42:30;;;;;;;12.53;6.33;;;9.20;99.90;;;;;;5046867;28;20190;-72
2023/02/21 05:44:55;;;;;;;10.87;6.77;;;9.20;99.90;;;;;;5045358;28;20429;-72
2023/02/21 05:47:21;;;;;;;9.50;6.30;;;9.20;99.90;;;;;;5051918;28;20410;-72
2023/02/21 05:49:46;;;;;;;9.10;6.20;;;9.20;99.90;;;;;;5046862;28;20181;-71
2023/02/21 05:52:14;;;;;;;10.70;6.80;;;9.20;99.90;;;;;;5045834;28;20718;-72
2023/02/21 05:54:40;;;;;;;11.53;6.20;;;9.20;99.90;;;;;;5038678;28;20200;-71
2023/02/21 05:57:05;;;;;;;10.23;7.23;;;9.20;99.90;;;;;;5056255;22;20980;-74
2023/02/21 05:59:31;;;;;;;9.30;5.93;;;9.20;99.90;;;;;;5035736;28;20269;-74
2023/02/21 06:01:57;;;;;;;9.93;6.83;;;9.20;99.90;;;;;;5042638;28;20622;-74
2023/02/21 06:04:23;;;;;;;12.80;6.83;;;9.30;99.90;;;;;;5045003;28;20193;-73
2023/02/21 06:06:49;;;;;;;11.30;6.30;;;9.30;99.90;;;;;;5039427;28;20565;-75
2023/02/21 06:09:17;;;;;;;8.73;6.00;;;9.20;99.90;;;;;;5044944;28;20177;-75
2023/02/21 06:11:43;;;;;;;10.70;5.33;;;9.20;99.90;;;;;;5039527;28;20396;-74
2023/02/21 06:14:19;;;;;;;9.13;6.37;;;9.30;99.90;;;;;;5045636;28;20458;-74
2023/02/21 06:16:45;;;;;;;7.67;5.47;;;9.20;99.90;;;;;;5043009;28;20472;-74
2023/02/21 06:19:12;;;;;;;10.50;6.07;;;9.20;99.90;;;;;;5038999;28;20419;-74
2023/02/21 06:21:41;;;;;;;11.00;6.60;;;9.20;99.90;;;;;;5039208;28;20404;-74
2023/02/21 06:24:08;;;;;;;9.90;6.17;;;9.20;99.90;;;;;;5042176;28;20767;-74
2023/02/21 06:26:36;;;;;;;7.80;5.43;;;9.20;99.90;;;;;;5043125;28;20481;-75
2023/02/21 06:29:02;;;;;;;12.77;6.47;;;9.20;99.90;;;;;;5045808;28;20764;-74
2023/02/21 06:31:28;;;;;;;8.73;6.07;;;9.20;99.90;;;;;;5044371;28;20439;-75
2023/02/21 06:33:53;;;;;;;9.07;6.00;;;9.10;99.90;;;;;;5045886;28;20439;-74
2023/02/21 06:36:22;;;;;;;8.47;6.13;;;9.10;99.90;;;;;;5038330;28;20198;-74
2023/02/21 06:38:50;;;;;;;10.57;6.50;;;9.20;99.90;;;;;;5041926;28;20187;-73
2023/02/21 06:41:20;;;;;;;7.27;5.70;;;9.20;99.90;;;;;;5040545;28;20504;-74
2023/02/21 06:43:46;;;;;;;9.73;5.43;;;9.10;99.90;;;;;;5035805;28;20460;-73
2023/02/21 06:46:16;;;;;;;10.00;6.27;;;9.20;99.90;;;;;;5043918;28;20522;-74
2023/02/21 06:48:42;;;;;;;9.60;5.50;;;9.10;99.90;;;;;;5037682;28;20170;-74
2023/02/21 06:51:10;;;;;;;7.80;5.83;;;9.20;99.90;;;;;;5039821;28;20413;-74
2023/02/21 06:53:41;;;;;;;9.70;5.03;;;9.10;99.90;;;;;;5033101;28;20175;-73
2023/02/21 06:56:07;;;;;;;10.83;5.27;;;9.20;99.90;;;;;;5044388;28;20467;-74
2023/02/21 06:58:33;;;;;;;6.93;5.20;;;9.10;99.90;;;;;;5039414;28;20774;-77
2023/02/21 07:00:59;;;;;;;5.60;4.50;;;9.10;99.90;;;;;;5040458;28;20413;-75
2023/02/21 07:03:24;;;;;;;7.80;5.57;;;9.20;99.90;;;;;;5045439;28;20167;-74
2023/02/21 07:05:50;;;;;;;5.60;4.53;;;9.20;99.90;;;;;;5041690;28;20276;-73
2023/02/21 07:08:16;;;;;;;7.30;5.37;;;9.20;99.90;;;;;;5045787;28;20175;-74
2023/02/21 07:10:41;;;;;;;6.90;5.00;;;9.10;99.90;;;;;;5037574;28;20677;-74
2023/02/21 07:13:07;;;;;;;5.97;4.60;;;9.20;99.90;;;;;;5045343;28;20174;-73
2023/02/21 07:15:32;;;;;;;5.33;4.80;;;9.20;99.90;;;;;;5043733;28;20185;-74
2023/02/21 07:17:58;;;;;;;5.93;4.17;;;9.20;99.90;;;;;;5033278;28;20171;-74
2023/02/21 07:20:24;;;;;;;5.97;4.40;;;9.20;99.90;;;;;;5038103;28;20199;-74
2023/02/21 07:22:49;;;;;;;5.77;4.47;;;9.20;99.90;;;;;;5040974;28;20262;-74
2023/02/21 07:25:18;;;;;;;5.67;4.17;;;9.20;99.90;;;;;;5040130;28;20170;-73
2023/02/21 07:27:46;;;;;;;8.73;4.80;;;9.20;99.90;;;;;;5036766;28;20642;-73
2023/02/21 07:30:13;;;;;;;5.20;4.13;;;9.20;99.90;;;;;;5039237;28;20417;-74
2023/02/21 07:32:38;;;;;;;5.53;3.30;;;9.10;99.90;;;;;;5038498;28;20472;-74
2023/02/21 07:35:04;;;;;;;5.80;4.07;;;9.20;99.90;;;;;;5040526;28;20453;-75
2023/02/21 07:37:30;;;;;;;5.80;3.63;;;9.20;99.90;;;;;;5045979;28;20463;-74
2023/02/21 07:39:56;;;;;;;4.67;3.63;;;9.20;99.90;;;;;;5032967;28;20403;-75
2023/02/21 07:42:21;;;;;;;5.50;3.50;;;9.20;99.90;;;;;;5033172;28;20191;-75
2023/02/21 07:44:47;;;;;;;5.60;3.10;;;9.30;99.90;;;;;;5039015;28;20175;-75
2023/02/21 07:47:13;;;;;;;4.60;3.77;;;9.30;99.90;;;;;;5038536;28;20217;-75
2023/02/21 07:49:39;;;;;;;5.40;3.03;;;9.30;99.90;;;;;;5042571;28;20189;-75
2023/02/21 07:52:06;;;;;;;6.70;4.23;;;9.30;99.90;;;;;;5039946;28;20174;-75
2023/02/21 07:54:32;;;;;;;5.80;3.03;;;9.40;99.90;;;;;;5042545;28;20409;-75
2023/02/21 07:56:57;;;;;;;3.20;2.53;;;9.40;99.90;;;;;;5029480;28;20530;-74
2023/02/21 07:59:23;;;;;;;3.10;2.47;;;9.40;99.90;;;;;;5039930;28;20436;-73
2023/02/21 08:01:49;;;;;;;2.40;2.20;;;9.40;99.90;;;;;;5032977;28;20578;-73
2023/02/21 08:04:19;;;;;;;3.23;2.53;;;9.40;99.90;;;;;;5032155;28;20167;-73
2023/02/21 08:06:44;;;;;;;1.80;1.33;;;9.40;99.90;;;;;;5039907;28;20193;-73
2023/02/21 08:09:10;;;;;;;3.70;1.80;;;9.40;99.90;;;;;;5037386;28;20407;-73
2023/02/21 08:11:36;;;;;;;3.47;2.03;;;9.40;99.90;;;;;;5026959;28;20230;-74
2023/02/21 08:14:02;;;;;;;2.90;2.50;;;9.40;99.90;;;;;;5041262;28;20201;-68
2023/02/21 08:16:45;;;;;;;3.10;2.40;;;9.50;99.90;;;;;;5040091;28;20806;-71
2023/02/21 08:19:22;;;;;;;3.00;2.23;;;9.60;99.90;;;;;;5026814;28;20502;-72
2023/02/21 08:21:58;;;;;;;2.40;1.80;;;9.70;99.90;;;;;;5045157;28;20409;-71
2023/02/21 08:24:35;;;;;;;1.70;1.30;;;9.90;99.90;;;;;;5041209;28;20416;-71
2023/02/21 08:27:09;;;;;;;1.70;1.43;;;9.90;99.90;;;;;;5027942;28;20820;-70
2023/02/21 08:29:40;;;;;;;1.73;1.13;;;9.90;99.90;;;;;;5021743;28;21059;-71
2023/02/21 08:32:14;;;;;;;1.40;1.13;;;9.90;99.90;;;;;;5036655;28;20405;-72
2023/02/21 08:35:08;;;;;;;1.40;1.30;;;9.90;99.90;;;;;;5044292;28;20902;-72
2023/02/21 08:37:44;;;;;;;1.20;1.10;;;9.90;99.90;;;;;;5041885;28;20978;-72
2023/02/21 08:40:10;;;;;;;1.53;1.30;;;10.00;99.90;;;;;;5038746;28;20403;-71
2023/02/21 08:42:35;;;;;;;1.80;1.20;;;10.00;99.90;;;;;;5031826;28;20751;-71
2023/02/21 08:45:01;;;;;;;1.23;0.90;;;10.10;99.90;;;;;;5016818;28;20411;-70
2023/02/21 08:47:27;;;;;;;1.30;1.20;;;10.30;99.90;;;;;;5045826;28;20281;-70
2023/02/21 08:49:52;;;;;;;1.43;1.20;;;10.30;99.90;;;;;;5031429;28;20170;-70
2023/02/21 08:52:20;;;;;;;1.10;0.90;;;10.30;99.90;;;;;;5035599;28;20645;-73
2023/02/21 08:54:46;;;;;;;0.93;0.80;;;10.30;99.90;;;;;;5038650;28;20174;-71
2023/02/21 08:57:12;;;;;;;3.03;1.27;;;10.40;99.90;;;;;;5031268;28;20469;-70
2023/02/21 08:59:41;;;;;;;4.83;1.90;;;10.40;99.90;;;;;;5045088;28;20428;-70
2023/02/21 09:02:23;;;;;;;1.03;0.93;;;10.70;99.90;;;;;;5031745;28;20429;-70
2023/02/21 09:04:50;;;;;;;1.23;0.83;;;10.60;99.90;;;;;;5036205;28;20922;-71
2023/02/21 09:07:18;;;;;;;2.83;1.20;;;10.50;99.90;;;;;;5039981;28;20439;-71
2023/02/21 09:09:44;;;;;;;1.70;1.33;;;10.50;99.90;;;;;;5041073;28;20752;-71
2023/02/21 09:12:11;;;;;;;2.50;1.20;;;10.40;99.90;;;;;;5042648;28;20488;-71
2023/02/21 09:14:38;;;;;;;1.20;1.10;;;10.30;99.90;;;;;;5036491;28;20445;-70
2023/02/21 09:17:06;;;;;;;1.53;1.43;;;10.30;99.90;;;;;;5037295;28;20576;-70
2023/02/21 09:19:32;;;;;;;2.07;1.23;;;10.30;99.90;;;;;;5039158;28;20403;-70
2023/02/21 09:21:57;;;;;;;1.90;1.37;;;10.40;99.90;;;;;;5042732;28;20915;-73
2023/02/21 09:24:24;;;;;;;1.30;1.20;;;10.30;99.90;;;;;;5034426;28;20407;-71
2023/02/21 09:26:57;;;;;;;3.30;1.10;;;10.40;99.90;;;;;;5020618;28;20222;-71
2023/02/21 09:29:24;;;;;;;3.07;1.37;;;10.30;99.90;;;;;;5038171;28;20409;-73
2023/02/21 09:31:51;;;;;;;5.90;1.80;;;10.20;99.90;;;;;;5029697;28;20397;-71
2023/02/21 09:34:16;;;;;;;2.00;1.10;;;10.20;99.90;;;;;;5024227;28;20421;-70
2023/02/21 09:36:42;;;;;;;2.20;1.20;;;10.30;99.90;;;;;;5041036;28;20791;-70
2023/02/21 09:39:08;;;;;;;4.03;1.30;;;10.40;99.90;;;;;;5036683;28;20226;-71
2023/02/21 09:41:35;;;;;;;3.50;1.53;;;10.30;99.90;;;;;;5037646;28;20167;-73
2023/02/21 09:44:04;;;;;;;2.57;0.97;;;10.30;99.90;;;;;;5024753;28;20937;-70
2023/02/21 09:46:41;;;;;;;1.77;1.37;;;10.40;99.90;;;;;;5033496;28;20858;-72
2023/02/21 09:49:23;;;;;;;5.33;1.60;;;10.30;99.90;;;;;;5041962;28;20786;-72
2023/02/21 09:51:49;;;;;;;4.87;1.30;;;10.60;99.90;;;;;;5041561;28;20891;-71
2023/02/21 09:54:30;;;;;;;5.13;1.40;;;10.50;99.90;;;;;;5021410;28;20425;-71
2023/02/21 09:57:00;;;;;;;2.83;1.20;;;10.40;99.90;;;;;;5040284;28;20912;-70
2023/02/21 09:59:25;;;;;;;4.07;1.47;;;10.50;99.90;;;;;;5040792;28;20461;-70
2023/02/21 10:02:09;;;;;;;6.50;2.23;;;10.50;99.90;;;;;;5043993;28;20896;-71
2023/02/21 10:04:38;;;;;;;6.63;1.57;;;10.50;99.90;;;;;;5044898;28;20172;-70
2023/02/21 10:07:10;;;;;;;2.17;1.20;;;10.40;99.90;;;;;;5038729;28;20797;-70
2023/02/21 10:09:48;;;;;;;4.60;1.43;;;10.50;99.90;;;;;;5035093;28;20425;-71
2023/02/21 10:12:30;;;;;;;5.40;1.37;;;10.60;99.90;;;;;;5034754;28;20409;-72
2023/02/21 10:15:16;;;;;;;6.23;2.30;;;10.60;99.90;;;;;;5030343;28;20410;-73
2023/02/21 10:17:52;;;;;;;2.23;1.40;;;10.70;99.90;;;;;;5019925;28;20830;-71
2023/02/21 10:20:42;;;;;;;15.20;1.87;;;10.70;99.90;;;;;;5038484;28;20431;-71
2023/02/21 10:23:17;;;;;;;4.70;1.40;;;10.80;99.90;;;;;;5036439;28;20414;-70
2023/02/21 10:25:45;;;;;;;4.47;1.50;;;10.70;99.90;;;;;;5042435;28;20490;-71
2023/02/21 10:28:20;;;;;;;6.87;1.70;;;10.70;99.90;;;;;;5038424;28;20510;-71
2023/02/21 10:30:48;;;;;;;8.83;1.70;;;10.70;99.90;;;;;;5041778;28;20425;-71
2023/02/21 10:33:15;;;;;;;4.33;1.30;;;10.70;99.90;;;;;;5048842;28;20467;-72
2023/02/21 10:35:40;;;;;;;6.27;1.40;;;10.80;99.90;;;;;;5026609;28;20893;-70
2023/02/21 10:38:22;;;;;;;1.70;1.60;;;11.00;99.90;;;;;;5018133;28;20451;-71
2023/02/21 10:40:55;;;;;;;5.07;1.80;;;11.20;99.90;;;;;;5036449;28;21399;-71
2023/02/21 10:43:33;;;;;;;7.50;1.33;;;10.80;99.90;;;;;;5025649;28;20406;-72
2023/02/21 10:46:12;;;;;;;2.17;1.37;;;10.80;99.90;;;;;;5024782;28;20780;-72
2023/02/21 10:48:41;;;;;;;8.23;2.00;;;11.00;99.90;;;;;;5040945;28;20823;-71
2023/02/21 10:51:15;;;;;;;4.50;1.30;;;11.00;99.90;;;;;;5043619;28;20433;-71
2023/02/21 10:53:46;;;;;;;3.63;1.90;;;11.00;99.90;;;;;;5043678;28;20540;-69
2023/02/21 10:56:15;;;;;;;2.30;1.37;;;10.90;99.90;;;;;;5044387;28;20568;-70
2023/02/21 10:59:05;;;;;;;3.10;1.67;;;11.00;99.90;;;;;;5040813;28;20786;-70
2023/02/21 11:01:32;;;;;;;3.17;1.30;;;11.30;99.90;;;;;;5044716;28;20402;-71
2023/02/21 11:04:01;;;;;;;4.67;1.40;;;10.90;99.90;;;;;;5041374;28;20406;-71
2023/02/21 11:06:42;;;;;;;9.60;1.53;;;10.90;99.90;;;;;;5040969;28;20426;-71
2023/02/21 11:09:36;;;;;;;2.87;1.13;;;11.10;99.90;;;;;;5033246;28;20441;-72
2023/02/21 11:12:20;;;;;;;3.90;1.33;;;11.00;99.90;;;;;;5038799;28;20397;-73
2023/02/21 11:14:57;;;;;;;5.27;1.60;;;11.00;99.90;;;;;;5042534;28;20501;-71
2023/02/21 11:17:32;;;;;;;1.83;1.30;;;10.90;99.90;;;;;;5043934;28;20963;-71
2023/02/21 11:20:13;;;;;;;2.87;1.40;;;11.10;99.90;;;;;;5041152;28;20492;-71
2023/02/21 11:22:42;;;;;;;5.43;1.50;;;11.00;99.90;;;;;;5034439;28;20398;-72
2023/02/21 11:25:18;;;;;;;3.90;1.50;;;11.10;99.90;;;;;;5038279;28;20398;-72
2023/02/21 11:27:57;;;;;;;3.63;1.50;;;11.00;99.90;;;;;;5043950;28;20444;-70
2023/02/21 11:30:22;;;;;;;4.33;1.47;;;11.00;99.90;;;;;;5032175;28;20913;-71
2023/02/21 11:32:51;;;;;;;4.07;1.97;;;11.10;99.90;;;;;;5044628;28;20418;-71
2023/02/21 11:35:31;;;;;;;5.73;1.57;;;11.00;99.90;;;;;;5039775;28;20168;-72
2023/02/21 11:38:00;;;;;;;7.30;2.27;;;10.90;99.90;;;;;;5035570;28;20516;-70
2023/02/21 11:40:28;;;;;;;9.47;1.80;;;10.90;99.90;;;;;;5040144;28;20507;-71
2023/02/21 11:43:29;;;;;;;3.97;1.97;;;10.90;99.90;;;;;;5034419;28;20438;-74
2023/02/21 11:46:09;;;;;;;6.43;1.50;;;11.00;99.90;;;;;;5024957;28;20461;-73
2023/02/21 11:48:51;;;;;;;8.13;1.57;;;11.20;99.90;;;;;;5041465;28;20410;-71
2023/02/21 11:51:37;;;;;;;7.80;1.70;;;11.10;99.90;;;;;;5043756;28;20397;-71
2023/02/21 11:54:04;;;;;;;2.30;1.20;;;11.30;99.90;;;;;;5043332;28;20393;-70
2023/02/21 11:56:34;;;;;;;4.60;1.30;;;11.20;99.90;;;;;;5037216;28;20456;-74
2023/02/21 11:58:59;;;;;;;3.73;1.47;;;11.00;99.90;;;;;;5042075;28;20402;-72
2023/02/21 12:01:36;;;;;;;6.83;2.07;;;11.20;99.90;;;;;;5048979;23;20480;-70
2023/02/21 12:04:25;;;;;;;3.47;2.00;;;11.10;99.90;;;;;;5058877;28;20262;-69
2023/02/21 12:07:10;;;;;;;5.17;1.80;;;11.30;99.90;;;;;;5065546;28;20401;-73
2023/02/21 12:09:45;;;;;;;10.07;1.73;;;11.30;99.90;;;;;;5060603;28;20405;-73
2023/02/21 12:12:29;;;;;;;3.70;1.80;;;11.30;99.90;;;;;;5064917;28;20420;-70
2023/02/21 12:15:03;;;;;;;2.47;1.33;;;11.20;99.90;;;;;;5064279;28;20392;-70
2023/02/21 12:18:10;;;;;;;8.47;2.10;;;11.20;99.90;;;;;;5063159;28;20452;-71
2023/02/21 12:21:20;;;;;;;10.80;2.20;;;11.30;99.90;;;;;;5025825;28;20520;-72
2023/02/21 12:23:51;;;;;;;7.10;2.23;;;11.10;99.90;;;;;;5054503;28;20570;-71
2023/02/21 12:26:51;;;;;;;5.73;2.40;;;11.00;99.90;;;;;;5058559;28;20927;-71
2023/02/21 12:29:38;;;;;;;4.57;1.60;;;11.10;99.90;;;;;;5054153;28;20408;-71
2023/02/21 12:32:30;;;;;;;6.10;2.00;;;11.20;99.90;;;;;;5055138;28;20523;-72
2023/02/21 12:35:01;;;;;;;8.53;2.37;;;11.00;99.90;;;;;;5058500;28;20413;-72
2023/02/21 12:37:42;;;;;;;7.03;2.50;;;11.00;99.90;;;;;;5066391;28;20480;-70
2023/02/21 12:40:27;;;;;;;3.43;1.90;;;11.20;99.90;;;;;;5051398;28;20401;-72
2023/02/21 12:43:36;;;;;;;3.67;1.80;;;11.10;99.90;;;;;;5053285;28;20437;-72
2023/02/21 12:46:04;;;;;;;7.47;2.50;;;11.10;99.90;;;;;;5051676;28;20936;-71
2023/02/21 12:48:39;;;;;;;10.50;1.80;;;11.10;99.90;;;;;;5063034;28;20405;-72
2023/02/21 12:51:14;;;;;;;8.40;2.70;;;11.10;99.90;;;;;;5063834;28;20428;-69
2023/02/21 12:53:50;;;;;;;8.83;2.03;;;11.30;99.90;;;;;;5061567;28;20405;-73
2023/02/21 12:56:43;;;;;;;7.50;1.73;;;11.10;99.90;;;;;;5063857;28;20447;-71
2023/02/21 12:59:36;;;;;;;6.03;1.47;;;11.10;99.90;;;;;;5047537;28;20797;-71
2023/02/21 13:02:18;;;;;;;5.80;1.50;;;10.90;99.90;;;;;;5056514;28;20444;-69
2023/02/21 13:05:12;;;;;;;5.00;1.77;;;10.90;99.90;;;;;;5062106;28;20452;-70
2023/02/21 13:07:51;;;;;;;9.53;1.63;;;11.00;99.90;;;;;;5061520;28;20404;-70
2023/02/21 13:10:33;;;;;;;9.27;3.33;;;10.90;99.90;;;;;;5063397;28;20400;-72
2023/02/21 13:13:23;;;;;;;6.40;2.33;;;10.80;99.90;;;;;;5049742;28;20894;-72
2023/02/21 13:15:52;;;;;;;7.50;2.57;;;10.90;99.90;;;;;;5062298;28;20487;-70
2023/02/21 13:18:26;;;;;;;5.83;1.70;;;10.80;99.90;;;;;;5056403;28;20463;-71
2023/02/21 13:20:56;;;;;;;5.13;1.70;;;10.70;99.90;;;;;;5057854;28;20422;-70
2023/02/21 13:26:59;;;;;;;4.97;2.07;;;10.80;99.90;;;;;;5057047;28;20408;-72
2023/02/21 13:29:29;;;;;;;12.07;1.53;;;10.70;99.90;;;;;;5066768;28;20406;-71
2023/02/21 13:31:58;;;;;;;6.57;1.70;;;10.80;99.90;;;;;;5053721;28;20513;-73
2023/02/21 13:34:27;;;;;;;6.00;1.90;;;10.80;99.90;;;;;;5064621;28;20408;-71
2023/02/21 13:36:52;;;;;;;13.00;2.60;;;10.70;99.90;;;;;;5056586;28;20498;-71
2023/02/21 13:39:29;;;;;;;9.33;2.37;;;10.80;99.90;;;;;;5066298;28;20408;-71
2023/02/21 13:42:05;;;;;;;4.50;1.87;;;10.80;99.90;;;;;;5062948;28;20181;-72
2023/02/21 13:44:44;;;;;;;5.80;2.13;;;10.80;99.90;;;;;;5065788;28;20412;-71
2023/02/21 13:47:21;;;;;;;3.63;1.73;;;10.80;99.90;;;;;;5066826;28;20414;-72
2023/02/21 13:49:51;;;;;;;4.40;1.53;;;10.90;99.90;;;;;;5064072;28;20419;-70
2023/02/21 13:52:23;;;;;;;8.40;1.93;;;10.90;99.90;;;;;;5060841;28;20429;-70
2023/02/21 13:55:10;;;;;;;14.07;2.20;;;10.90;99.90;;;;;;5066613;28;20452;-70
2023/02/21 13:57:59;;;;;;;5.73;1.80;;;10.90;99.90;;;;;;5063011;28;20949;-71
2023/02/21 14:00:28;;;;;;;8.13;1.93;;;10.80;99.90;;;;;;5018473;28;20421;-70
2023/02/21 14:03:07;;;;;;;4.67;2.10;;;10.80;99.90;;;;;;5051580;28;20405;-74
2023/02/21 14:05:45;;;;;;;7.10;1.83;;;10.80;99.90;;;;;;5060287;28;20429;-70
2023/02/21 14:08:26;;;;;;;4.50;1.83;;;10.90;99.90;;;;;;5060582;28;20400;-69
2023/02/21 14:10:57;;;;;;;3.77;1.20;;;10.90;99.90;;;;;;5065888;28;20799;-70
2023/02/21 14:13:57;;;;;;;9.97;3.90;;;10.90;99.90;;;;;;5066614;28;20404;-70
2023/02/21 14:16:32;;;;;;;4.23;1.87;;;10.80;99.90;;;;;;5011535;28;20948;-73
2023/02/21 14:19:23;;;;;;;6.30;1.97;;;10.80;99.90;;;;;;5057953;28;20493;-72
2023/02/21 14:22:02;;;;;;;6.53;1.57;;;10.70;99.90;;;;;;5048444;28;20792;-72
2023/02/21 14:24:32;;;;;;;7.67;2.20;;;10.70;99.90;;;;;;5064891;28;20398;-69
2023/02/21 14:27:00;;;;;;;6.83;2.63;;;10.70;99.90;;;;;;5049154;28;21030;-70
2023/02/21 14:29:31;;;;;;;8.67;2.27;;;10.70;99.90;;;;;;5063556;28;20467;-70
2023/02/21 14:32:01;;;;;;;3.50;1.80;;;10.60;99.90;;;;;;5047429;28;20941;-71
2023/02/21 14:34:55;;;;;;;10.90;2.43;;;10.70;99.90;;;;;;5065816;28;20413;-70
2023/02/21 14:37:37;;;;;;;5.63;1.70;;;10.80;99.90;;;;;;5053021;28;20468;-71
2023/02/21 14:40:09;;;;;;;4.30;2.00;;;10.70;99.90;;;;;;5058090;28;20395;-70
2023/02/21 14:43:01;;;;;;;10.50;2.30;;;10.70;99.90;;;;;;5057249;28;20430;-72
2023/02/21 14:45:36;;;;;;;3.50;1.43;;;10.70;99.90;;;;;;5066044;28;20401;-70
2023/02/21 14:48:16;;;;;;;1.97;1.70;;;10.70;99.90;;;;;;5058885;28;20522;-72
2023/02/21 14:50:53;;;;;;;6.20;1.63;;;10.60;99.90;;;;;;5053623;28;20913;-70
2023/02/21 14:53:30;;;;;;;11.50;2.17;;;10.60;99.90;;;;;;5066902;28;20455;-70
2023/02/21 14:56:19;;;;;;;10.77;2.60;;;10.50;99.90;;;;;;5047481;28;20412;-69
2023/02/21 14:59:15;;;;;;;8.57;2.57;;;10.50;99.90;;;;;;5063423;28;20492;-70
2023/02/21 15:01:57;;;;;;;6.90;2.70;;;10.60;99.90;;;;;;5064153;28;20448;-73
2023/02/21 15:04:28;;;;;;;6.90;2.37;;;10.50;99.90;;;;;;5066048;28;20469;-71
2023/02/21 15:07:06;;;;;;;11.90;2.57;;;10.50;99.90;;;;;;5051640;28;20409;-72
2023/02/21 15:09:32;;;;;;;6.83;2.63;;;10.40;99.90;;;;;;5061728;28;20436;-72
2023/02/21 15:11:58;;;;;;;6.80;2.03;;;10.40;99.90;;;;;;5067608;28;20433;-72
2023/02/21 15:14:27;;;;;;;6.17;2.40;;;10.50;99.90;;;;;;5046911;28;20182;-72
2023/02/21 15:17:09;;;;;;;8.93;2.40;;;10.50;99.90;;;;;;5069856;28;20879;-71
2023/02/21 15:19:35;;;;;;;7.50;2.07;;;10.50;99.90;;;;;;5060606;28;20761;-71
2023/02/21 15:22:16;;;;;;;4.37;2.17;;;10.30;99.90;;;;;;5065306;28;20421;-71
2023/02/21 15:25:08;;;;;;;11.93;2.53;;;10.30;99.90;;;;;;5060549;28;20409;-72
2023/02/21 15:27:55;;;;;;;4.83;2.03;;;10.30;99.90;;;;;;5061595;28;20426;-70
2023/02/21 15:30:31;;;;;;;8.67;1.80;;;10.30;99.90;;;;;;5048936;28;20406;-70
2023/02/21 15:33:16;;;;;;;5.30;2.53;;;10.40;99.90;;;;;;5055681;28;20400;-69
2023/02/21 15:35:55;;;;;;;7.47;2.33;;;10.40;99.90;;;;;;5063484;28;20420;-70